Flugplatz Schwäbisch Hall-Weckrieden (EDTX)

Hier findest Du alle Informationen zum Flugplatz Schwäbisch Hall-Weckrieden (EDTX).

Informationen für Piloten zum Flugplatz Schwäbisch Hall-Weckrieden

Hier findest Du alle relevanten Informationen, die Du als Pilot benötigst, um Schwäbisch Hall-Weckrieden anzufliegen.

Flugplatz: Schwäbisch Hall-Weckrieden ICAO-Code: EDTX
Frequenz Turm: 129,225 Mhz GAFOR Gebiet: 53
Frequenz Ground: 129,225 Mhz Mogas: ja
Platzrunde: N 2300 ft Landegebühr: -
Platzhöhe: 1.310 ft Sunrise: 06:02 Uhr UTC
Pisten: 08/26 - 550 m x 30 m, GRAS Sunset: 17:04 Uhr UTC

Mitglieder, die in Schwäbisch Hall-Weckrieden fliegen

Flugwetter am Flugplatz Schwäbisch Hall-Weckrieden

Die METAR Information stammen aus EDDS (63.23 km entfernt).

METAR Code:
2024/02/16 06:50
EDDS 160650Z AUTO 04003KT 360V100 CAVOK 07/05 Q1015 NOSIG

Flugschulen am Flugplatz Schwäbisch Hall-Weckrieden

Am Flugplatz Schwäbisch Hall-Weckrieden gibt es leider keine Flugschule.

Benachbarte Flugplätze und Flugschulen

Es gibt 21 weitere Flugplätze in einem Umkreis von 50 km um den Flugplatz Schwäbisch Hall-Weckrieden.

Jetzt anmelden

Passwort vergessen

Umfrage Archiv

Wie häufig haltet Ihr die Halbkreisflugregel ein?

Eher häufig!
34.9 %
Immer!
33 %
Hin und wieder!
15.3 %
Nie!
10 %
Eher selten!
6.7 %
Stimmen: 209 | Diskussion
Anzeige: Roland Aircraft
Statistik Alle Mitglieder

Aktuell sind 15 Besucher online, davon 1 Mitglied und 14 Gäste.


Mitglieder online:
raller 

Anzeige: EasyVFR